createdAt,value
2023-03-03T00:01:17.804Z,72.14
2023-03-03T00:04:03.712Z,72.06
2023-03-03T00:06:49.210Z,72.50
2023-03-03T00:09:34.633Z,72.22
2023-03-03T00:12:31.473Z,72.15
2023-03-03T00:15:23.565Z,72.10
2023-03-03T00:18:35.559Z,72.56
2023-03-03T00:21:33.188Z,72.49
2023-03-03T00:24:39.008Z,72.67
2023-03-03T00:27:31.192Z,72.58
2023-03-03T00:30:27.870Z,72.37
2023-03-03T00:33:29.825Z,72.51
2023-03-03T00:36:15.027Z,72.93
2023-03-03T00:39:31.664Z,72.85
2023-03-03T00:42:19.054Z,73.04
2023-03-03T00:45:16.888Z,73.24
2023-03-03T00:48:19.460Z,72.94
2023-03-03T00:51:35.777Z,73.10
2023-03-03T00:54:21.284Z,72.79
2023-03-03T00:57:06.694Z,72.78
2023-03-03T00:59:52.466Z,72.81
2023-03-03T01:02:38.356Z,72.81
2023-03-03T01:05:23.735Z,72.81
2023-03-03T01:08:09.442Z,72.82
2023-03-03T01:11:03.787Z,72.89
2023-03-03T01:13:51.241Z,72.88
2023-03-03T01:16:36.915Z,72.79
2023-03-03T01:19:22.412Z,72.79
2023-03-03T01:22:09.422Z,72.95
2023-03-03T01:24:54.703Z,72.83
2023-03-03T01:27:40.383Z,72.96
2023-03-03T01:30:26.702Z,72.93
2023-03-03T01:33:12.235Z,72.95
2023-03-03T01:35:58.027Z,73.04
2023-03-03T01:38:43.914Z,73.22
2023-03-03T01:41:33.520Z,73.04
2023-03-03T01:44:19.021Z,73.46
2023-03-03T01:47:15.842Z,73.36
2023-03-03T01:50:11.154Z,73.63
2023-03-03T01:52:59.925Z,73.52
2023-03-03T01:55:48.070Z,73.48
2023-03-03T01:58:46.916Z,73.58
2023-03-03T02:01:33.855Z,73.44
2023-03-03T02:04:22.051Z,73.63
2023-03-03T02:07:11.041Z,73.67
2023-03-03T02:10:13.764Z,73.58
2023-03-03T02:13:00.002Z,73.67
2023-03-03T02:15:46.225Z,73.58
2023-03-03T02:18:32.008Z,73.62
2023-03-03T02:21:21.864Z,73.49
2023-03-03T02:24:27.744Z,73.54
2023-03-03T02:27:14.595Z,73.38
2023-03-03T02:30:15.605Z,73.56
2023-03-03T02:33:01.546Z,73.95
2023-03-03T02:35:46.979Z,73.86
2023-03-03T02:38:38.292Z,73.90
2023-03-03T02:41:27.563Z,73.77
2023-03-03T02:44:17.245Z,74.23
2023-03-03T02:47:03.172Z,74.48
2023-03-03T02:49:48.612Z,74.08
2023-03-03T02:52:34.901Z,74.05
2023-03-03T02:55:20.554Z,74.22
2023-03-03T02:58:05.819Z,74.68
2023-03-03T03:00:51.215Z,74.37
2023-03-03T03:03:40.674Z,74.85
2023-03-03T03:06:26.594Z,74.26
2023-03-03T03:09:13.601Z,74.52
2023-03-03T03:12:02.418Z,74.64
2023-03-03T03:14:50.190Z,74.56
2023-03-03T03:17:37.944Z,74.67
2023-03-03T03:20:24.675Z,74.58
2023-03-03T03:23:11.771Z,74.87
2023-03-03T03:25:57.442Z,74.66
2023-03-03T03:28:48.434Z,74.63
2023-03-03T03:31:34.340Z,74.86
2023-03-03T03:34:21.624Z,74.54
2023-03-03T03:37:09.925Z,74.95
2023-03-03T03:39:57.206Z,74.94
2023-03-03T03:42:43.529Z,74.80
2023-03-03T03:45:30.029Z,74.70
2023-03-03T03:48:16.861Z,74.99
2023-03-03T03:51:05.204Z,74.94
2023-03-03T03:53:51.832Z,75.17
2023-03-03T03:56:37.598Z,75.28
2023-03-03T03:59:23.348Z,75.23
2023-03-03T04:02:09.392Z,74.85
2023-03-03T04:04:55.410Z,74.59
2023-03-03T04:07:40.739Z,75.03
2023-03-03T04:10:27.185Z,75.13
2023-03-03T04:13:13.224Z,75.13
2023-03-03T04:15:58.642Z,74.92
2023-03-03T04:18:46.491Z,74.94
2023-03-03T04:21:33.789Z,74.94
2023-03-03T04:24:20.525Z,74.93
2023-03-03T04:27:09.588Z,74.95
2023-03-03T04:29:55.939Z,74.75
2023-03-03T04:32:42.093Z,75.33
2023-03-03T04:35:29.406Z,75.35
2023-03-03T04:38:16.083Z,75.20
2023-03-03T04:41:02.080Z,75.18
2023-03-03T04:43:51.881Z,75.40
2023-03-03T04:46:37.338Z,75.20
2023-03-03T04:49:22.969Z,74.95
2023-03-03T04:52:08.478Z,75.12
2023-03-03T04:54:54.991Z,75.03
2023-03-03T04:57:40.726Z,75.47
2023-03-03T05:00:26.710Z,75.27
2023-03-03T05:03:12.942Z,75.36
2023-03-03T05:06:00.581Z,75.23
2023-03-03T05:08:46.373Z,75.11
2023-03-03T05:11:32.633Z,75.23
2023-03-03T05:14:18.593Z,75.47
2023-03-03T05:17:04.698Z,75.08
2023-03-03T05:19:49.909Z,75.09
2023-03-03T05:22:35.193Z,75.40
2023-03-03T05:25:21.232Z,75.24
2023-03-03T05:28:06.813Z,75.34
2023-03-03T05:30:52.258Z,75.39
2023-03-03T05:33:37.611Z,75.42
2023-03-03T05:36:22.992Z,75.23
2023-03-03T05:39:08.379Z,75.76
2023-03-03T05:41:53.865Z,75.46
2023-03-03T05:44:39.722Z,75.79
2023-03-03T05:47:25.163Z,75.89
2023-03-03T05:50:12.262Z,75.79
2023-03-03T05:52:57.734Z,75.92
2023-03-03T05:55:43.467Z,75.97
2023-03-03T05:58:29.241Z,75.90
2023-03-03T06:01:14.830Z,75.91
2023-03-03T06:04:00.344Z,75.65
2023-03-03T06:06:45.794Z,75.90
2023-03-03T06:09:31.803Z,76.43
2023-03-03T06:12:17.813Z,76.38
2023-03-03T06:15:03.733Z,76.14
2023-03-03T06:17:49.441Z,76.57
2023-03-03T06:20:35.551Z,76.28
2023-03-03T06:23:21.504Z,76.18
2023-03-03T06:26:07.255Z,76.30
2023-03-03T06:28:55.270Z,76.62
2023-03-03T06:31:40.622Z,76.47
2023-03-03T06:34:26.144Z,76.58
2023-03-03T06:37:11.456Z,76.87
2023-03-03T06:39:56.817Z,76.30
2023-03-03T06:42:42.587Z,76.69
2023-03-03T06:45:28.225Z,76.58
2023-03-03T06:48:13.548Z,76.63
2023-03-03T06:51:01.694Z,76.12
2023-03-03T06:53:49.469Z,76.81
2023-03-03T06:56:36.765Z,77.02
2023-03-03T06:59:22.391Z,76.95
2023-03-03T07:02:17.197Z,77.27
2023-03-03T07:05:02.884Z,77.08
2023-03-03T07:07:48.532Z,77.21
2023-03-03T07:10:33.944Z,77.46
2023-03-03T07:13:19.232Z,77.29
2023-03-03T07:16:12.424Z,77.33
2023-03-03T07:19:01.661Z,77.59
2023-03-03T07:21:47.532Z,77.52
2023-03-03T07:24:33.260Z,77.64
2023-03-03T07:27:28.306Z,77.65
2023-03-03T07:30:16.998Z,77.54
2023-03-03T07:33:02.746Z,77.61
2023-03-03T07:35:48.247Z,77.54
2023-03-03T07:38:53.673Z,78.09
2023-03-03T07:41:39.412Z,77.94
2023-03-03T07:44:35.582Z,77.71
2023-03-03T07:47:35.814Z,77.79
2023-03-03T07:50:23.168Z,77.65
2023-03-03T07:53:29.112Z,77.75
2023-03-03T07:56:28.427Z,77.55
2023-03-03T07:59:25.826Z,77.58
2023-03-03T08:02:58.624Z,77.42
2023-03-03T08:05:47.033Z,77.68
2023-03-03T08:08:37.131Z,77.78
2023-03-03T08:11:22.631Z,78.61
2023-03-03T08:14:15.503Z,77.51
2023-03-03T08:17:02.110Z,77.30
2023-03-03T08:19:49.227Z,77.48
2023-03-03T08:22:36.211Z,77.02
2023-03-03T08:25:21.562Z,77.29
2023-03-03T08:28:06.981Z,77.13
2023-03-03T08:31:00.160Z,77.19
2023-03-03T08:33:51.126Z,77.24
2023-03-03T08:36:36.625Z,76.69
2023-03-03T08:39:22.098Z,76.63
2023-03-03T08:42:07.356Z,76.15
2023-03-03T08:44:52.882Z,75.91
2023-03-03T08:47:39.196Z,76.02
2023-03-03T08:50:24.544Z,76.04
2023-03-03T08:53:11.730Z,75.68
2023-03-03T08:55:57.343Z,75.15
2023-03-03T08:59:01.313Z,75.14
2023-03-03T09:01:47.785Z,74.52
2023-03-03T09:04:33.717Z,74.84
2023-03-03T09:07:19.336Z,73.88
2023-03-03T09:10:05.938Z,73.78
2023-03-03T09:12:51.232Z,73.58
2023-03-03T09:15:38.746Z,73.19
2023-03-03T09:18:38.267Z,73.46
2023-03-03T09:21:32.852Z,73.12
2023-03-03T09:24:29.312Z,72.37
2023-03-03T09:27:37.064Z,72.30
2023-03-03T09:30:40.348Z,71.75
2023-03-03T09:33:37.963Z,71.23
2023-03-03T09:36:39.064Z,71.28
2023-03-03T09:39:26.004Z,70.44
2023-03-03T09:42:11.626Z,70.53
2023-03-03T09:45:17.962Z,70.02
2023-03-03T09:48:18.741Z,69.52
2023-03-03T09:51:31.503Z,69.30
2023-03-03T09:54:27.318Z,69.26
2023-03-03T09:57:29.890Z,69.13
2023-03-03T10:00:24.794Z,68.86
2023-03-03T10:03:34.857Z,68.93
2023-03-03T10:06:39.053Z,68.64
2023-03-03T10:10:01.966Z,68.80
2023-03-03T10:13:10.072Z,68.01
2023-03-03T10:16:17.627Z,67.63
2023-03-03T10:19:29.069Z,67.61
2023-03-03T10:22:17.923Z,67.10
2023-03-03T10:25:15.629Z,66.34
2023-03-03T10:28:22.622Z,66.19
2023-03-03T10:31:18.590Z,66.17
2023-03-03T10:34:07.748Z,65.41
2023-03-03T10:37:20.669Z,65.61
2023-03-03T10:40:30.093Z,65.19
2023-03-03T10:43:37.493Z,65.01
2023-03-03T10:46:25.878Z,64.49
2023-03-03T10:49:20.162Z,64.55
2023-03-03T10:52:31.581Z,64.37
2023-03-03T10:55:36.411Z,63.76
2023-03-03T10:58:28.170Z,64.23
2023-03-03T11:01:24.309Z,63.95
2023-03-03T11:04:22.552Z,63.61
2023-03-03T11:07:28.820Z,63.30
2023-03-03T11:10:46.785Z,63.06
2023-03-03T11:13:57.737Z,63.15
2023-03-03T11:17:01.489Z,63.17
2023-03-03T11:19:59.736Z,62.78
2023-03-03T11:23:05.850Z,62.80
2023-03-03T11:26:08.098Z,62.64
2023-03-03T11:29:19.287Z,62.20
2023-03-03T11:32:46.543Z,62.06
2023-03-03T11:36:08.620Z,61.85
2023-03-03T11:39:09.703Z,61.44
2023-03-03T11:42:04.947Z,60.64
2023-03-03T11:45:14.224Z,61.06
2023-03-03T11:48:14.584Z,60.58
2023-03-03T11:51:07.903Z,60.14
2023-03-03T11:54:12.013Z,59.43
2023-03-03T11:57:21.370Z,58.91
2023-03-03T12:00:33.367Z,59.44
2023-03-03T12:03:24.927Z,59.55
2023-03-03T12:06:25.694Z,59.34
2023-03-03T12:09:27.975Z,59.83
2023-03-03T12:12:30.908Z,59.25
2023-03-03T12:15:45.863Z,58.82
2023-03-03T12:18:58.658Z,58.74
2023-03-03T12:22:08.426Z,58.65
2023-03-03T12:25:18.970Z,57.89
2023-03-03T12:28:14.052Z,58.41
2023-03-03T12:31:24.557Z,57.78
2023-03-03T12:34:51.754Z,56.69
2023-03-03T12:37:48.116Z,57.24
2023-03-03T12:40:46.080Z,57.00
2023-03-03T12:43:37.888Z,55.37
2023-03-03T12:46:43.234Z,56.87
2023-03-03T12:49:43.483Z,56.64
2023-03-03T12:52:33.579Z,56.43
2023-03-03T12:55:50.490Z,55.12
2023-03-03T12:58:51.328Z,54.95
2023-03-03T13:01:42.659Z,55.55
2023-03-03T13:04:49.931Z,54.91
2023-03-03T13:07:35.685Z,55.30
2023-03-03T13:10:35.086Z,55.49
2023-03-03T13:13:34.592Z,54.68
2023-03-03T13:16:41.423Z,54.17
2023-03-03T13:19:39.576Z,55.02
2023-03-03T13:22:55.475Z,54.08
2023-03-03T13:25:50.144Z,54.31
2023-03-03T13:28:58.104Z,53.96
2023-03-03T13:31:56.115Z,55.36
2023-03-03T13:34:56.827Z,54.24
2023-03-03T13:37:52.780Z,54.87
2023-03-03T13:40:46.830Z,54.45
2023-03-03T13:43:54.752Z,54.86
2023-03-03T13:46:58.664Z,54.01
2023-03-03T13:50:10.531Z,53.54
2023-03-03T13:53:20.557Z,53.36
2023-03-03T13:56:26.448Z,52.46
2023-03-03T13:59:38.107Z,52.82
2023-03-03T14:02:28.629Z,52.81
2023-03-03T14:05:43.413Z,51.88
2023-03-03T14:08:43.174Z,51.21
2023-03-03T14:12:14.176Z,51.46
2023-03-03T14:15:17.940Z,52.48
2023-03-03T14:18:04.002Z,52.69
2023-03-03T14:20:55.338Z,51.84
2023-03-03T14:23:59.228Z,51.70
2023-03-03T14:26:50.189Z,53.03
2023-03-03T14:29:35.621Z,52.55
2023-03-03T14:32:39.623Z,50.46
2023-03-03T14:35:56.679Z,49.76
2023-03-03T14:38:45.890Z,50.41
2023-03-03T14:41:43.451Z,48.13
2023-03-03T14:44:33.076Z,48.81
2023-03-03T14:47:27.610Z,46.88
2023-03-03T14:50:36.706Z,45.49
2023-03-03T14:53:35.980Z,45.87
2023-03-03T14:56:37.622Z,46.60
2023-03-03T14:59:27.218Z,48.67
2023-03-03T15:02:18.696Z,48.73
2023-03-03T15:05:17.889Z,48.56
2023-03-03T15:08:06.028Z,49.43
2023-03-03T15:10:51.664Z,50.26
2023-03-03T15:13:38.190Z,49.71
2023-03-03T15:16:31.140Z,50.27
2023-03-03T15:19:22.708Z,50.19
2023-03-03T15:22:16.985Z,50.03
2023-03-03T15:25:22.865Z,49.71
2023-03-03T15:28:22.655Z,49.66
2023-03-03T15:31:32.759Z,49.40
2023-03-03T15:34:39.914Z,50.12
2023-03-03T15:37:39.369Z,50.10
2023-03-03T15:40:47.720Z,50.64
2023-03-03T15:43:45.182Z,50.94
2023-03-03T15:46:47.729Z,51.17
2023-03-03T15:50:06.604Z,50.60
2023-03-03T15:53:13.024Z,51.29
2023-03-03T15:56:12.761Z,51.19
2023-03-03T15:59:26.525Z,51.64
2023-03-03T16:02:22.632Z,51.66
2023-03-03T16:05:23.036Z,51.76
2023-03-03T16:08:19.739Z,52.18
2023-03-03T16:11:12.545Z,52.07
2023-03-03T16:14:01.450Z,52.55
2023-03-03T16:17:22.451Z,52.16
2023-03-03T16:20:23.446Z,52.84
2023-03-03T16:23:35.042Z,52.06
2023-03-03T16:26:36.554Z,52.55
2023-03-03T16:29:31.138Z,53.01
2023-03-03T16:32:36.500Z,53.22
2023-03-03T16:35:29.204Z,53.49
2023-03-03T16:38:48.955Z,53.38
2023-03-03T16:41:53.391Z,54.20
2023-03-03T16:44:49.862Z,54.24
2023-03-03T16:47:47.643Z,54.53
2023-03-03T16:51:07.404Z,54.48
2023-03-03T16:54:21.043Z,54.50
2023-03-03T16:57:18.898Z,55.21
2023-03-03T17:00:20.131Z,55.19
2023-03-03T17:03:31.661Z,55.14
2023-03-03T17:06:41.080Z,55.68
2023-03-03T17:09:33.465Z,55.78
2023-03-03T17:12:21.955Z,56.40
2023-03-03T17:15:27.308Z,56.77
2023-03-03T17:18:20.916Z,56.89
2023-03-03T17:21:32.228Z,57.40
2023-03-03T17:25:04.848Z,57.27
2023-03-03T17:27:55.176Z,57.75
2023-03-03T17:31:02.623Z,58.13
2023-03-03T17:34:12.526Z,57.72
2023-03-03T17:37:35.184Z,58.48
2023-03-03T17:40:42.212Z,58.86
2023-03-03T17:43:46.696Z,59.58
2023-03-03T17:46:54.168Z,59.48
2023-03-03T17:50:03.381Z,59.78
2023-03-03T17:53:10.849Z,59.76
2023-03-03T17:56:18.426Z,60.08
2023-03-03T17:59:45.882Z,60.14
2023-03-03T18:02:57.630Z,60.38
2023-03-03T18:06:00.846Z,60.72
2023-03-03T18:09:11.819Z,61.48
2023-03-03T18:12:09.855Z,61.22
2023-03-03T18:15:05.145Z,61.73
2023-03-03T18:18:32.441Z,62.16
2023-03-03T18:21:27.730Z,61.94
2023-03-03T18:24:25.814Z,62.45
2023-03-03T18:27:23.753Z,62.51
2023-03-03T18:30:25.038Z,62.56
2023-03-03T18:33:13.598Z,62.98
2023-03-03T18:36:15.289Z,63.05
2023-03-03T18:39:03.122Z,63.48
2023-03-03T18:42:09.786Z,63.28
2023-03-03T18:44:55.365Z,63.42
2023-03-03T18:48:12.864Z,63.84
2023-03-03T18:50:58.239Z,63.91
2023-03-03T18:54:26.253Z,63.82
2023-03-03T18:57:18.094Z,64.15
2023-03-03T19:00:22.484Z,64.34
2023-03-03T19:03:24.074Z,64.22
2023-03-03T19:06:10.288Z,64.46
2023-03-03T19:08:58.027Z,64.44
2023-03-03T19:11:51.965Z,64.83
2023-03-03T19:14:40.781Z,65.17
2023-03-03T19:17:26.430Z,64.98
2023-03-03T19:20:15.472Z,65.43
2023-03-03T19:23:18.189Z,65.25
2023-03-03T19:26:25.560Z,64.98
2023-03-03T19:29:20.434Z,65.24
2023-03-03T19:32:32.522Z,65.28
2023-03-03T19:35:21.647Z,65.75
2023-03-03T19:38:44.963Z,65.69
2023-03-03T19:41:39.436Z,65.79
2023-03-03T19:44:27.733Z,65.92
2023-03-03T19:47:28.478Z,65.66
2023-03-03T19:50:25.089Z,66.09
2023-03-03T19:53:34.086Z,65.99
2023-03-03T19:56:44.457Z,66.19
2023-03-03T19:59:46.073Z,66.30
2023-03-03T20:02:49.806Z,66.32
2023-03-03T20:05:55.289Z,66.78
2023-03-03T20:08:58.856Z,66.64
2023-03-03T20:12:12.314Z,66.53
2023-03-03T20:15:12.496Z,66.73
2023-03-03T20:18:06.899Z,66.88
2023-03-03T20:21:06.937Z,66.83
2023-03-03T20:24:40.562Z,66.94
2023-03-03T20:27:47.578Z,67.18
2023-03-03T20:30:58.130Z,67.58
2023-03-03T20:33:56.483Z,67.61
2023-03-03T20:37:03.573Z,67.83
2023-03-03T20:40:10.859Z,68.13
2023-03-03T20:43:18.226Z,67.98
2023-03-03T20:46:25.850Z,68.08
2023-03-03T20:49:33.238Z,68.33
2023-03-03T20:52:35.994Z,68.12
2023-03-03T20:55:42.753Z,68.04
2023-03-03T20:58:55.936Z,68.26
2023-03-03T21:01:53.284Z,68.59
2023-03-03T21:04:39.545Z,68.54
2023-03-03T21:07:26.321Z,68.09
2023-03-03T21:10:17.808Z,68.30
2023-03-03T21:13:44.192Z,68.88
2023-03-03T21:16:32.291Z,68.83
2023-03-03T21:19:34.268Z,68.83
2023-03-03T21:22:20.028Z,68.96
2023-03-03T21:25:05.847Z,69.00
2023-03-03T21:27:51.371Z,68.77
2023-03-03T21:31:16.872Z,69.14
2023-03-03T21:34:20.272Z,68.95
2023-03-03T21:37:09.759Z,69.31
2023-03-03T21:40:18.344Z,69.23
2023-03-03T21:43:04.081Z,69.27
2023-03-03T21:45:49.508Z,69.19
2023-03-03T21:48:34.801Z,69.48
2023-03-03T21:51:21.468Z,69.68
2023-03-03T21:54:07.020Z,69.21
2023-03-03T21:56:52.884Z,69.74
2023-03-03T21:59:38.727Z,69.41
2023-03-03T22:02:24.524Z,69.82
2023-03-03T22:05:09.929Z,69.45
2023-03-03T22:07:55.722Z,69.41
2023-03-03T22:10:40.954Z,69.57
2023-03-03T22:13:27.318Z,69.56
2023-03-03T22:16:13.161Z,69.60
2023-03-03T22:19:00.669Z,69.38
2023-03-03T22:21:47.709Z,69.90
2023-03-03T22:24:33.036Z,69.88
2023-03-03T22:27:18.385Z,69.91
2023-03-03T22:30:04.546Z,69.85
2023-03-03T22:32:52.337Z,70.04
2023-03-03T22:35:37.712Z,70.14
2023-03-03T22:38:25.249Z,70.01
2023-03-03T22:41:11.103Z,70.13
2023-03-03T22:43:56.732Z,70.21
2023-03-03T22:46:42.165Z,70.04
2023-03-03T22:49:27.208Z,70.15
2023-03-03T22:52:12.596Z,70.40
2023-03-03T22:54:58.982Z,70.26
2023-03-03T22:57:44.767Z,70.27
2023-03-03T23:00:30.376Z,70.57
2023-03-03T23:03:16.517Z,70.42
2023-03-03T23:06:02.028Z,70.47
2023-03-03T23:08:47.453Z,70.55
2023-03-03T23:11:32.795Z,70.60
2023-03-03T23:14:18.233Z,70.85
2023-03-03T23:17:03.535Z,70.92
2023-03-03T23:19:49.193Z,70.93
2023-03-03T23:22:34.818Z,71.27
2023-03-03T23:25:22.981Z,71.09
2023-03-03T23:28:08.760Z,71.16
2023-03-03T23:30:54.307Z,70.72
2023-03-03T23:33:39.519Z,71.21
2023-03-03T23:36:25.050Z,71.22
2023-03-03T23:39:10.648Z,70.94
2023-03-03T23:41:56.381Z,71.08
2023-03-03T23:44:41.635Z,71.23
2023-03-03T23:47:27.055Z,71.47
2023-03-03T23:50:13.286Z,71.41
2023-03-03T23:52:58.840Z,71.52
2023-03-03T23:55:45.587Z,71.75
2023-03-03T23:58:31.242Z,71.74
